sensor_id;sensor_type;location;lat;lon;timestamp;P1;durP1;ratioP1;P2;durP2;ratioP2
12072;SDS011;6098;49.004;8.372;2023-03-23T00:11:06;1.58;;;1.00;;
12072;SDS011;6098;49.004;8.372;2023-03-23T00:26:00;1.51;;;0.99;;
12072;SDS011;6098;49.004;8.372;2023-03-23T00:40:51;2.17;;;1.07;;
12072;SDS011;6098;49.004;8.372;2023-03-23T00:55:43;1.34;;;1.10;;
12072;SDS011;6098;49.004;8.372;2023-03-23T01:10:34;1.36;;;0.93;;
12072;SDS011;6098;49.004;8.372;2023-03-23T01:25:27;1.47;;;1.20;;
12072;SDS011;6098;49.004;8.372;2023-03-23T01:40:18;1.92;;;1.33;;
12072;SDS011;6098;49.004;8.372;2023-03-23T01:55:09;1.29;;;1.19;;
12072;SDS011;6098;49.004;8.372;2023-03-23T02:10:02;1.91;;;1.24;;
12072;SDS011;6098;49.004;8.372;2023-03-23T02:55:12;1.61;;;1.20;;
12072;SDS011;6098;49.004;8.372;2023-03-23T03:25:20;1.71;;;1.53;;
12072;SDS011;6098;49.004;8.372;2023-03-23T03:40:16;1.83;;;1.70;;
12072;SDS011;6098;49.004;8.372;2023-03-23T03:55:09;2.86;;;1.41;;
12072;SDS011;6098;49.004;8.372;2023-03-23T04:10:00;1.80;;;1.50;;
12072;SDS011;6098;49.004;8.372;2023-03-23T04:24:52;1.84;;;1.56;;
12072;SDS011;6098;49.004;8.372;2023-03-23T04:39:43;2.36;;;1.40;;
12072;SDS011;6098;49.004;8.372;2023-03-23T04:54:35;2.01;;;1.44;;
12072;SDS011;6098;49.004;8.372;2023-03-23T05:09:27;1.98;;;1.40;;
12072;SDS011;6098;49.004;8.372;2023-03-23T05:24:18;1.96;;;1.60;;
12072;SDS011;6098;49.004;8.372;2023-03-23T05:39:09;2.01;;;1.72;;
12072;SDS011;6098;49.004;8.372;2023-03-23T05:53:59;2.90;;;1.99;;
12072;SDS011;6098;49.004;8.372;2023-03-23T06:08:51;2.59;;;1.70;;
12072;SDS011;6098;49.004;8.372;2023-03-23T06:23:42;2.48;;;2.10;;
12072;SDS011;6098;49.004;8.372;2023-03-23T06:38:33;3.44;;;2.16;;
12072;SDS011;6098;49.004;8.372;2023-03-23T06:53:24;4.27;;;2.52;;
12072;SDS011;6098;49.004;8.372;2023-03-23T07:08:15;5.18;;;2.49;;
12072;SDS011;6098;49.004;8.372;2023-03-23T07:23:06;3.07;;;2.21;;
12072;SDS011;6098;49.004;8.372;2023-03-23T07:37:58;5.00;;;2.47;;
12072;SDS011;6098;49.004;8.372;2023-03-23T07:52:50;2.63;;;2.02;;
12072;SDS011;6098;49.004;8.372;2023-03-23T08:07:42;2.38;;;2.09;;
12072;SDS011;6098;49.004;8.372;2023-03-23T08:22:33;2.18;;;1.60;;
12072;SDS011;6098;49.004;8.372;2023-03-23T08:37:26;2.18;;;1.51;;
12072;SDS011;6098;49.004;8.372;2023-03-23T08:52:18;3.72;;;1.62;;
12072;SDS011;6098;49.004;8.372;2023-03-23T09:07:10;2.34;;;1.44;;
12072;SDS011;6098;49.004;8.372;2023-03-23T09:22:00;2.37;;;1.37;;
12072;SDS011;6098;49.004;8.372;2023-03-23T09:36:52;1.77;;;1.20;;
12072;SDS011;6098;49.004;8.372;2023-03-23T10:06:33;1.59;;;1.18;;
12072;SDS011;6098;49.004;8.372;2023-03-23T10:21:23;2.32;;;1.27;;
12072;SDS011;6098;49.004;8.372;2023-03-23T10:36:18;1.46;;;1.10;;
12072;SDS011;6098;49.004;8.372;2023-03-23T10:51:16;1.71;;;1.23;;
12072;SDS011;6098;49.004;8.372;2023-03-23T11:06:08;1.66;;;1.14;;
12072;SDS011;6098;49.004;8.372;2023-03-23T11:20:58;2.94;;;1.56;;
12072;SDS011;6098;49.004;8.372;2023-03-23T11:35:52;1.78;;;1.50;;
12072;SDS011;6098;49.004;8.372;2023-03-23T11:50:50;1.89;;;1.39;;
12072;SDS011;6098;49.004;8.372;2023-03-23T12:06:02;1.68;;;1.20;;
12072;SDS011;6098;49.004;8.372;2023-03-23T13:06:47;1.93;;;1.10;;
12072;SDS011;6098;49.004;8.372;2023-03-23T13:21:46;1.41;;;1.28;;
12072;SDS011;6098;49.004;8.372;2023-03-23T13:36:41;2.94;;;1.31;;
12072;SDS011;6098;49.004;8.372;2023-03-23T13:51:35;1.22;;;1.10;;
12072;SDS011;6098;49.004;8.372;2023-03-23T14:06:39;2.24;;;1.52;;
12072;SDS011;6098;49.004;8.372;2023-03-23T14:51:20;2.77;;;1.90;;
12072;SDS011;6098;49.004;8.372;2023-03-23T15:06:12;2.51;;;1.99;;
12072;SDS011;6098;49.004;8.372;2023-03-23T15:36:04;2.50;;;1.93;;
12072;SDS011;6098;49.004;8.372;2023-03-23T15:50:52;2.49;;;2.20;;
12072;SDS011;6098;49.004;8.372;2023-03-23T16:05:44;3.64;;;2.34;;
12072;SDS011;6098;49.004;8.372;2023-03-23T16:20:35;2.89;;;2.20;;
12072;SDS011;6098;49.004;8.372;2023-03-23T16:35:26;2.90;;;2.08;;
12072;SDS011;6098;49.004;8.372;2023-03-23T16:50:17;3.33;;;2.47;;
12072;SDS011;6098;49.004;8.372;2023-03-23T17:05:09;3.22;;;2.67;;
12072;SDS011;6098;49.004;8.372;2023-03-23T17:20:01;2.56;;;2.36;;
12072;SDS011;6098;49.004;8.372;2023-03-23T17:34:52;5.86;;;4.00;;
12072;SDS011;6098;49.004;8.372;2023-03-23T17:49:43;4.98;;;2.81;;
12072;SDS011;6098;49.004;8.372;2023-03-23T18:04:34;4.52;;;2.32;;
12072;SDS011;6098;49.004;8.372;2023-03-23T18:19:25;6.43;;;3.10;;
12072;SDS011;6098;49.004;8.372;2023-03-23T18:34:16;3.48;;;2.37;;
12072;SDS011;6098;49.004;8.372;2023-03-23T18:49:07;3.97;;;2.34;;
12072;SDS011;6098;49.004;8.372;2023-03-23T19:03:58;2.37;;;2.17;;
12072;SDS011;6098;49.004;8.372;2023-03-23T19:18:50;2.74;;;2.14;;
12072;SDS011;6098;49.004;8.372;2023-03-23T19:33:41;3.84;;;2.77;;
12072;SDS011;6098;49.004;8.372;2023-03-23T19:48:35;2.77;;;1.90;;
12072;SDS011;6098;49.004;8.372;2023-03-23T20:03:25;4.31;;;2.07;;
12072;SDS011;6098;49.004;8.372;2023-03-23T20:18:16;2.04;;;1.64;;
12072;SDS011;6098;49.004;8.372;2023-03-23T20:33:10;3.06;;;2.03;;
12072;SDS011;6098;49.004;8.372;2023-03-23T20:48:01;3.99;;;2.81;;
12072;SDS011;6098;49.004;8.372;2023-03-23T21:02:52;2.64;;;2.02;;
12072;SDS011;6098;49.004;8.372;2023-03-23T21:17:43;3.00;;;2.19;;
12072;SDS011;6098;49.004;8.372;2023-03-23T21:32:35;2.88;;;2.30;;
12072;SDS011;6098;49.004;8.372;2023-03-23T21:47:27;2.54;;;2.03;;
12072;SDS011;6098;49.004;8.372;2023-03-23T22:02:26;3.76;;;2.98;;
12072;SDS011;6098;49.004;8.372;2023-03-23T22:17:18;4.02;;;2.72;;
12072;SDS011;6098;49.004;8.372;2023-03-23T22:32:09;3.92;;;2.30;;
12072;SDS011;6098;49.004;8.372;2023-03-23T22:47:01;2.98;;;2.50;;
12072;SDS011;6098;49.004;8.372;2023-03-23T23:01:51;3.16;;;2.46;;
12072;SDS011;6098;49.004;8.372;2023-03-23T23:16:42;4.49;;;2.76;;
12072;SDS011;6098;49.004;8.372;2023-03-23T23:31:33;6.09;;;3.10;;
12072;SDS011;6098;49.004;8.372;2023-03-23T23:46:24;5.34;;;3.44;;
